Time;durP1;ratioP1;P1;durP2;ratioP2;P2;SDS_P1;SDS_P2;PMS_P1;PMS_P2;Temp;Humidity;BMP_temperature;BMP_pressure;BME280_temperature;BME280_humidity;BME280_pressure;Samples;Min_cycle;Max_cycle;Signal;HPM_P1;HPM_P2
2023/10/28 00:00:46;;;;;;;0.00;0.00;;;;;;;10.21;100.00;97614.88;4940211;28;20023;-75
2023/10/28 00:03:12;;;;;;;0.08;0.08;;;;;;;10.09;100.00;97595.69;4936452;28;20031;-75
2023/10/28 00:05:37;;;;;;;0.00;0.00;;;;;;;10.19;100.00;97617.16;4951425;28;20027;-74
2023/10/28 00:08:03;;;;;;;0.00;0.00;;;;;;;10.17;100.00;97619.41;4940144;28;20030;-73
2023/10/28 00:10:33;;;;;;;0.00;0.00;;;;;;;10.16;100.00;97622.47;4947488;28;20038;-73
2023/10/28 00:13:02;;;;;;;0.00;0.00;;;;;;;10.06;100.00;97601.81;4936406;28;20080;-73
2023/10/28 00:15:28;;;;;;;0.00;0.00;;;;;;;10.13;100.00;97604.81;4923592;28;20039;-72
2023/10/28 00:17:53;;;;;;;0.00;0.00;;;;;;;10.17;100.00;97597.56;4922465;29;20043;-72
2023/10/28 00:20:21;;;;;;;0.00;0.00;;;;;;;10.13;100.00;97602.06;4942970;28;20022;-74
2023/10/28 00:22:54;;;;;;;0.00;0.00;;;;;;;10.22;100.00;97608.28;4961901;28;20481;-73
2023/10/28 00:25:27;;;;;;;0.00;0.00;;;;;;;10.17;100.00;97597.56;4939596;28;20027;-72
2023/10/28 00:27:56;;;;;;;0.00;0.00;;;;;;;10.20;100.00;97607.81;4937510;28;20542;-71
2023/10/28 00:30:25;;;;;;;0.00;0.00;;;;;;;10.16;100.00;97595.16;4943052;28;20038;-71
2023/10/28 00:32:52;;;;;;;0.00;0.00;;;;;;;10.24;100.00;97599.78;4940893;28;20042;-72
2023/10/28 00:35:19;;;;;;;0.00;0.00;;;;;;;10.08;100.00;97573.03;4951026;28;20032;-71
2023/10/28 00:37:44;;;;;;;0.00;0.00;;;;;;;10.06;100.00;97563.59;4936979;28;20064;-73
2023/10/28 00:40:10;;;;;;;0.00;0.00;;;;;;;10.29;100.00;97597.66;4934867;28;20023;-72
2023/10/28 00:42:37;;;;;;;0.00;0.00;;;;;;;10.28;100.00;97593.31;4937592;28;20062;-72
2023/10/28 00:45:03;;;;;;;0.00;0.00;;;;;;;10.25;100.00;97584.97;4915795;28;20078;-72
2023/10/28 00:47:29;;;;;;;0.00;0.00;;;;;;;10.24;100.00;97586.91;4957424;28;20027;-72
2023/10/28 00:49:55;;;;;;;0.00;0.00;;;;;;;10.23;100.00;97589.97;4941086;28;20024;-72
2023/10/28 00:52:21;;;;;;;0.00;0.00;;;;;;;10.21;100.00;97593.03;4928197;29;20528;-72
2023/10/28 00:54:48;;;;;;;0.00;0.00;;;;;;;10.19;100.00;97584.38;4939029;28;20043;-72
2023/10/28 00:57:16;;;;;;;0.00;0.00;;;;;;;10.11;100.00;97566.13;4930356;29;20035;-73
2023/10/28 00:59:42;;;;;;;0.00;0.00;;;;;;;9.98;100.00;97567.19;4942209;28;20077;-73
2023/10/28 01:02:09;;;;;;;0.00;0.00;;;;;;;9.88;100.00;97563.69;4938407;28;20024;-72
2023/10/28 01:04:35;;;;;;;0.10;0.10;;;;;;;9.82;100.00;97565.03;4930610;29;20354;-72
2023/10/28 01:07:00;;;;;;;0.00;0.00;;;;;;;9.56;100.00;97546.91;4934804;28;20024;-73
2023/10/28 01:09:26;;;;;;;0.00;0.00;;;;;;;9.51;100.00;97554.47;4925833;28;20402;-73
2023/10/28 01:11:54;;;;;;;0.00;0.00;;;;;;;9.56;100.00;97576.91;4938678;28;20027;-73
2023/10/28 01:14:20;;;;;;;0.00;0.00;;;;;;;9.49;100.00;97571.16;4943883;28;20031;-73
2023/10/28 01:16:45;;;;;;;0.00;0.00;;;;;;;9.53;100.00;97584.94;4938120;28;20370;-74
2023/10/28 01:19:10;;;;;;;0.00;0.00;;;;;;;9.48;100.00;97575.00;4935569;28;20390;-73
2023/10/28 01:21:36;;;;;;;0.00;0.00;;;;;;;9.47;100.00;97567.16;4900852;28;20458;-72
2023/10/28 01:24:02;;;;;;;0.00;0.00;;;;;;;9.52;100.00;97578.69;4936386;28;20347;-72
2023/10/28 01:26:27;;;;;;;0.00;0.00;;;;;;;9.43;100.00;97561.53;4942989;28;20454;-73
2023/10/28 01:28:54;;;;;;;0.00;0.00;;;;;;;9.49;100.00;97568.44;4937939;28;20030;-72
2023/10/28 01:31:21;;;;;;;0.00;0.00;;;;;;;9.50;100.00;97567.28;4930538;29;20035;-71
2023/10/28 01:33:48;;;;;;;0.00;0.00;;;;;;;9.59;100.00;97573.53;4940265;28;20035;-72
2023/10/28 01:36:16;;;;;;;0.00;0.00;;;;;;;9.66;100.00;97572.19;4914086;28;20493;-72
2023/10/28 01:38:42;;;;;;;0.00;0.00;;;;;;;9.68;100.00;97564.47;4942538;28;20489;-71
2023/10/28 01:41:12;;;;;;;0.00;0.00;;;;;;;9.67;100.00;97551.97;4910334;28;20036;-72
2023/10/28 01:43:40;;;;;;;0.00;0.00;;;;;;;9.78;100.00;97564.09;4942409;28;20170;-71
2023/10/28 01:46:06;;;;;;;0.00;0.00;;;;;;;9.85;100.00;97567.09;4928669;29;20430;-73
2023/10/28 01:48:31;;;;;;;0.00;0.00;;;;;;;9.87;100.00;97564.84;4946542;28;20027;-73
2023/10/28 01:50:57;;;;;;;0.00;0.00;;;;;;;9.85;100.00;97558.13;4921265;28;20741;-72
2023/10/28 01:53:25;;;;;;;0.00;0.00;;;;;;;9.83;100.00;97557.63;4925334;28;20090;-72
2023/10/28 01:55:50;;;;;;;0.00;0.00;;;;;;;9.80;100.00;97556.38;4918885;29;20037;-71
2023/10/28 01:58:17;;;;;;;0.00;0.00;;;;;;;9.77;100.00;97563.31;4913597;28;20110;-72
2023/10/28 02:00:43;;;;;;;0.00;0.00;;;;;;;9.75;100.00;97571.03;4934134;29;20023;-73
2023/10/28 02:03:11;;;;;;;0.00;0.00;;;;;;;9.66;100.00;97566.75;4928190;28;20449;-72
2023/10/28 02:05:39;;;;;;;0.00;0.00;;;;;;;9.60;100.00;97583.28;4950266;28;20533;-72
2023/10/28 02:08:06;;;;;;;0.00;0.00;;;;;;;9.51;100.00;97577.09;4943407;28;20058;-73
2023/10/28 02:10:32;;;;;;;0.00;0.00;;;;;;;9.40;100.00;97571.22;4930876;28;20055;-74
2023/10/28 02:12:58;;;;;;;0.00;0.00;;;;;;;9.36;100.00;97573.00;4919202;29;20141;-74
2023/10/28 02:15:23;;;;;;;0.00;0.00;;;;;;;9.31;100.00;97564.97;4929026;28;20067;-73
2023/10/28 02:17:49;;;;;;;0.00;0.00;;;;;;;9.36;100.00;97569.44;4948959;28;20027;-73
2023/10/28 02:20:14;;;;;;;0.00;0.00;;;;;;;9.31;100.00;97567.69;4928367;28;20066;-74
2023/10/28 02:22:41;;;;;;;0.00;0.00;;;;;;;9.31;100.00;97566.91;4905281;29;20363;-73
2023/10/28 02:25:08;;;;;;;0.00;0.00;;;;;;;9.29;100.00;97574.59;4936544;28;20020;-73
2023/10/28 02:27:33;;;;;;;0.00;0.00;;;;;;;9.23;100.00;97561.16;4934240;28;20035;-73
2023/10/28 02:29:59;;;;;;;0.00;0.00;;;;;;;9.33;100.00;97570.09;4944405;28;20042;-73
2023/10/28 02:32:25;;;;;;;0.00;0.00;;;;;;;9.34;100.00;97567.03;4935075;28;20034;-72
2023/10/28 02:34:50;;;;;;;0.00;0.00;;;;;;;9.40;100.00;97575.84;4952626;28;21374;-73
2023/10/28 02:37:16;;;;;;;0.00;0.00;;;;;;;9.46;100.00;97574.53;4919751;28;20038;-73
2023/10/28 02:39:42;;;;;;;0.00;0.00;;;;;;;9.50;100.00;97574.69;4944540;28;20035;-71
2023/10/28 02:42:07;;;;;;;0.00;0.00;;;;;;;9.55;100.00;97575.31;4950359;28;20042;-72
2023/10/28 02:44:33;;;;;;;0.00;0.00;;;;;;;9.55;100.00;97563.56;4928661;28;20094;-71
2023/10/28 02:46:59;;;;;;;0.00;0.00;;;;;;;9.68;100.00;97575.38;4916867;29;20051;-72
2023/10/28 02:49:25;;;;;;;0.00;0.00;;;;;;;9.77;100.00;97574.22;4938471;28;20058;-74
2023/10/28 02:51:50;;;;;;;0.00;0.00;;;;;;;9.79;100.00;97573.88;4929730;29;20398;-73
2023/10/28 02:54:16;;;;;;;0.00;0.00;;;;;;;9.78;100.00;97564.09;4937282;28;20039;-72
2023/10/28 02:56:41;;;;;;;0.00;0.00;;;;;;;9.86;100.00;97576.09;4914313;28;20478;-73
2023/10/28 02:59:07;;;;;;;0.00;0.00;;;;;;;9.87;100.00;97564.84;4946265;28;20042;-73
2023/10/28 03:01:38;;;;;;;0.00;0.00;;;;;;;9.90;100.00;97568.81;4941815;28;20454;-73
2023/10/28 03:04:04;;;;;;;0.00;0.00;;;;;;;9.93;100.00;97568.97;4935961;28;20050;-73
2023/10/28 03:06:30;;;;;;;0.00;0.00;;;;;;;9.91;100.00;97559.50;4950859;28;20441;-73
2023/10/28 03:08:55;;;;;;;0.00;0.00;;;;;;;9.94;100.00;97551.47;4938888;28;20039;-72
2023/10/28 03:11:21;;;;;;;0.00;0.00;;;;;;;9.92;100.00;97553.72;4942126;28;20086;-72
2023/10/28 03:13:46;;;;;;;0.00;0.00;;;;;;;10.00;100.00;97564.91;4909835;28;20040;-71
2023/10/28 03:16:12;;;;;;;0.00;0.00;;;;;;;9.98;100.00;97562.53;4919923;29;20032;-72
2023/10/28 03:18:38;;;;;;;0.00;0.00;;;;;;;9.97;100.00;97555.44;4954010;28;20039;-73
2023/10/28 03:21:06;;;;;;;0.00;0.00;;;;;;;9.93;100.00;97544.41;4941812;28;20034;-72
2023/10/28 03:23:32;;;;;;;0.00;0.00;;;;;;;9.94;100.00;97551.47;4944994;28;20019;-73
2023/10/28 03:25:58;;;;;;;0.00;0.00;;;;;;;10.03;100.00;97561.53;4945456;28;20031;-72
2023/10/28 03:28:23;;;;;;;0.00;0.00;;;;;;;9.97;100.00;97550.00;4935201;29;20047;-73
2023/10/28 03:30:49;;;;;;;0.00;0.00;;;;;;;9.91;100.00;97559.50;4938680;28;20062;-73
2023/10/28 03:33:15;;;;;;;0.00;0.00;;;;;;;9.78;100.00;97550.44;4957048;28;20122;-73
2023/10/28 03:35:40;;;;;;;0.00;0.00;;;;;;;9.72;100.00;97546.31;4929116;28;20449;-73
2023/10/28 03:38:06;;;;;;;0.00;0.00;;;;;;;9.68;100.00;97554.38;4929428;28;20046;-73
2023/10/28 03:40:31;;;;;;;0.00;0.00;;;;;;;9.65;100.00;97557.78;4935521;28;20036;-73
2023/10/28 03:42:57;;;;;;;0.00;0.00;;;;;;;9.55;100.00;97545.28;4921154;28;20035;-73
2023/10/28 03:45:22;;;;;;;0.00;0.00;;;;;;;9.64;100.00;97555.34;4922938;29;20083;-71
2023/10/28 03:47:48;;;;;;;0.00;0.00;;;;;;;9.64;100.00;97547.97;4916845;28;20045;-72
2023/10/28 03:50:14;;;;;;;0.00;0.00;;;;;;;9.70;100.00;97545.84;4918825;28;20036;-73
2023/10/28 03:52:39;;;;;;;0.00;0.00;;;;;;;9.73;100.00;97550.66;4936245;28;20515;-72
2023/10/28 03:55:05;;;;;;;0.00;0.00;;;;;;;9.79;100.00;97560.25;4907824;28;20032;-73
2023/10/28 03:57:31;;;;;;;0.00;0.00;;;;;;;9.71;100.00;97550.97;4908394;29;20031;-72
2023/10/28 03:59:58;;;;;;;0.00;0.00;;;;;;;9.61;100.00;97557.63;4924014;28;20503;-71
2023/10/28 04:02:23;;;;;;;0.00;0.00;;;;;;;9.42;100.00;97538.16;4945877;28;20035;-73
2023/10/28 04:04:49;;;;;;;0.00;0.00;;;;;;;9.39;100.00;97547.78;4940796;28;20034;-73
2023/10/28 04:07:14;;;;;;;0.00;0.00;;;;;;;9.34;100.00;97550.69;4910654;29;20038;-74
2023/10/28 04:09:40;;;;;;;0.00;0.00;;;;;;;9.24;100.00;97549.13;4917885;28;20038;-73
2023/10/28 04:12:06;;;;;;;0.00;0.00;;;;;;;9.23;100.00;97550.25;4926023;28;20034;-73
2023/10/28 04:14:33;;;;;;;0.00;0.00;;;;;;;9.20;100.00;97555.56;4939581;28;20070;-72
2023/10/28 04:16:58;;;;;;;0.00;0.00;;;;;;;9.15;100.00;97556.53;4931403;28;20028;-71
2023/10/28 04:19:23;;;;;;;0.00;0.00;;;;;;;9.13;100.00;97561.53;4924076;29;20035;-73
2023/10/28 04:21:49;;;;;;;0.00;0.00;;;;;;;9.17;100.00;97562.47;4933345;28;20123;-71
2023/10/28 04:24:14;;;;;;;0.00;0.00;;;;;;;9.24;100.00;97562.78;4953711;28;20034;-73
2023/10/28 04:26:40;;;;;;;0.00;0.00;;;;;;;9.35;100.00;97578.78;4953117;28;20031;-73
2023/10/28 04:29:06;;;;;;;0.00;0.00;;;;;;;9.45;100.00;97578.41;4928510;28;20371;-72
2023/10/28 04:31:32;;;;;;;0.00;0.00;;;;;;;9.43;100.00;97569.72;4947944;28;20035;-72
2023/10/28 04:33:57;;;;;;;0.00;0.00;;;;;;;9.44;100.00;97552.25;4906138;28;20038;-72
2023/10/28 04:36:24;;;;;;;0.00;0.00;;;;;;;9.62;100.00;97561.13;4929332;29;20032;-72
2023/10/28 04:38:50;;;;;;;0.00;0.00;;;;;;;9.72;100.00;97570.88;4925214;28;20126;-73
2023/10/28 04:41:15;;;;;;;0.00;0.00;;;;;;;9.77;100.00;97573.44;4930434;29;20031;-73
2023/10/28 04:43:41;;;;;;;0.00;0.00;;;;;;;9.82;100.00;97575.94;4930058;28;20032;-72
2023/10/28 04:46:06;;;;;;;0.00;0.00;;;;;;;9.78;100.00;97564.09;4936176;28;20927;-72
2023/10/28 04:48:32;;;;;;;0.00;0.00;;;;;;;9.82;100.00;97575.94;4943820;28;20027;-73
2023/10/28 04:50:58;;;;;;;0.00;0.00;;;;;;;9.81;100.00;97574.34;4934364;28;20035;-73
2023/10/28 04:53:24;;;;;;;0.00;0.00;;;;;;;9.79;100.00;97565.69;4926875;29;20059;-72
2023/10/28 04:55:49;;;;;;;0.00;0.00;;;;;;;9.83;100.00;97571.28;4960667;28;20039;-73
2023/10/28 04:58:15;;;;;;;0.00;0.00;;;;;;;9.94;100.00;97578.78;4920985;28;20627;-73
2023/10/28 05:00:41;;;;;;;0.00;0.00;;;;;;;9.80;100.00;97564.56;4923956;29;20047;-73
2023/10/28 05:03:06;;;;;;;0.00;0.00;;;;;;;9.79;100.00;97562.97;4937691;28;20031;-73
2023/10/28 05:05:32;;;;;;;0.00;0.00;;;;;;;9.92;100.00;97581.03;4941718;28;20493;-73
2023/10/28 05:08:05;;;;;;;0.00;0.00;;;;;;;9.94;100.00;97584.25;4926070;28;20042;-73
2023/10/28 05:10:31;;;;;;;0.03;0.03;;;;;;;9.87;100.00;97564.03;4943911;28;20486;-73
2023/10/28 05:12:57;;;;;;;0.00;0.00;;;;;;;9.79;100.00;97562.97;4946536;28;20090;-73
2023/10/28 05:15:22;;;;;;;0.00;0.00;;;;;;;9.90;100.00;97572.38;4952539;28;20579;-75
2023/10/28 05:17:47;;;;;;;0.00;0.00;;;;;;;9.89;100.00;97578.16;4931233;29;20023;-73
2023/10/28 05:20:13;;;;;;;0.00;0.00;;;;;;;9.81;100.00;97568.88;4915598;28;20099;-73
2023/10/28 05:22:41;;;;;;;0.00;0.00;;;;;;;9.70;100.00;97562.22;4921341;29;20062;-73
2023/10/28 05:25:07;;;;;;;0.00;0.00;;;;;;;9.71;100.00;97572.00;4928590;28;20024;-73
2023/10/28 05:27:33;;;;;;;0.00;0.00;;;;;;;9.64;100.00;97568.97;4933652;28;20035;-72
2023/10/28 05:29:59;;;;;;;0.00;0.00;;;;;;;9.59;100.00;97578.16;4947246;28;20034;-72
2023/10/28 05:32:25;;;;;;;0.00;0.00;;;;;;;9.47;100.00;97576.13;4938488;28;20031;-71
2023/10/28 05:34:51;;;;;;;0.00;0.00;;;;;;;9.36;100.00;97581.16;4947252;28;20027;-74
2023/10/28 05:37:16;;;;;;;0.00;0.00;;;;;;;9.20;100.00;97567.28;4935996;28;20039;-73
2023/10/28 05:39:42;;;;;;;0.00;0.00;;;;;;;9.16;100.00;97577.22;4931227;28;20146;-74
2023/10/28 05:42:10;;;;;;;0.00;0.00;;;;;;;9.08;100.00;97580.78;4931781;28;20032;-73
2023/10/28 05:44:36;;;;;;;0.00;0.00;;;;;;;8.95;100.00;97570.88;4933865;28;20373;-73
2023/10/28 05:47:02;;;;;;;0.00;0.00;;;;;;;8.77;100.00;97546.41;4935358;28;20043;-73
2023/10/28 05:49:27;;;;;;;0.00;0.00;;;;;;;9.00;100.00;97578.88;4923528;28;20119;-74
2023/10/28 05:51:54;;;;;;;0.00;0.00;;;;;;;9.11;100.00;97579.31;4908914;28;20394;-74
2023/10/28 05:54:20;;;;;;;0.00;0.00;;;;;;;9.15;100.00;97577.56;4940343;28;20418;-73
2023/10/28 05:56:45;;;;;;;0.00;0.00;;;;;;;9.27;100.00;97594.03;4923636;28;20030;-74
2023/10/28 05:59:11;;;;;;;0.10;0.10;;;;;;;9.21;100.00;97579.78;4920634;29;20032;-73
2023/10/28 06:01:37;;;;;;;0.00;0.00;;;;;;;9.22;100.00;97597.72;4920138;28;20038;-73
2023/10/28 06:04:03;;;;;;;0.00;0.00;;;;;;;9.17;100.00;97595.19;4944726;28;20023;-73
2023/10/28 06:06:28;;;;;;;0.00;0.00;;;;;;;9.15;100.00;97581.06;4937050;28;20033;-77
2023/10/28 06:08:54;;;;;;;0.00;0.00;;;;;;;9.13;100.00;97586.06;4932670;28;20034;-77
2023/10/28 06:11:20;;;;;;;0.00;0.00;;;;;;;9.11;100.00;97585.56;4925498;28;20464;-75
2023/10/28 06:13:45;;;;;;;0.00;0.00;;;;;;;9.05;100.00;97581.44;4935860;28;20036;-75
2023/10/28 06:16:11;;;;;;;0.00;0.00;;;;;;;9.01;100.00;97588.66;4950974;28;20477;-75
2023/10/28 06:18:37;;;;;;;0.00;0.00;;;;;;;8.98;100.00;97583.84;4909184;28;20382;-74
2023/10/28 06:21:04;;;;;;;0.00;0.00;;;;;;;9.00;100.00;97595.25;4936796;29;20032;-74
2023/10/28 06:23:29;;;;;;;0.00;0.00;;;;;;;9.12;100.00;97598.09;4946700;28;20090;-74
2023/10/28 06:25:55;;;;;;;0.00;0.00;;;;;;;9.04;100.00;97586.09;4945053;28;20482;-74
2023/10/28 06:28:21;;;;;;;0.00;0.00;;;;;;;9.06;100.00;97593.94;4929982;28;20474;-76
2023/10/28 06:30:48;;;;;;;0.00;0.00;;;;;;;9.10;100.00;97589.44;4944494;28;20031;-74
2023/10/28 06:33:13;;;;;;;0.00;0.00;;;;;;;9.21;100.00;97604.34;4950905;28;20027;-75
2023/10/28 06:35:39;;;;;;;0.00;0.00;;;;;;;9.28;100.00;97608.47;4937876;28;20027;-77
2023/10/28 06:38:06;;;;;;;0.00;0.00;;;;;;;9.28;100.00;97613.94;4931949;28;20478;-76
2023/10/28 06:40:41;;;;;;;0.00;0.00;;;;;;;9.02;100.00;97588.34;4954561;28;20035;-75
2023/10/28 06:43:08;;;;;;;0.00;0.00;;;;;;;8.90;100.00;97589.00;4948251;28;20020;-74
2023/10/28 06:45:34;;;;;;;0.00;0.00;;;;;;;8.88;100.00;97604.88;4939508;28;20023;-75
2023/10/28 06:48:00;;;;;;;0.00;0.00;;;;;;;8.78;100.00;97601.72;4928761;28;20035;-75
2023/10/28 06:50:26;;;;;;;0.00;0.00;;;;;;;8.87;100.00;97624.28;4934581;28;20075;-75
2023/10/28 06:52:59;;;;;;;0.00;0.00;;;;;;;8.60;100.00;97587.28;4936315;28;20036;-75
2023/10/28 06:55:26;;;;;;;0.00;0.00;;;;;;;8.74;100.00;97590.63;4946543;28;20038;-74
2023/10/28 06:57:52;;;;;;;0.00;0.00;;;;;;;8.96;100.00;97613.38;4930844;28;20615;-74
2023/10/28 07:00:21;;;;;;;0.00;0.00;;;;;;;9.13;100.00;97621.50;4947758;28;20503;-76
2023/10/28 07:02:49;;;;;;;0.00;0.00;;;;;;;9.06;100.00;97604.84;4929257;28;20055;-74
2023/10/28 07:05:24;;;;;;;0.00;0.00;;;;;;;9.21;100.00;97601.59;4918355;28;20031;-75
2023/10/28 07:07:56;;;;;;;0.00;0.00;;;;;;;9.24;100.00;97600.94;4918329;29;20031;-75
2023/10/28 07:10:25;;;;;;;0.00;0.00;;;;;;;9.44;100.00;97636.81;4926659;28;20583;-75
2023/10/28 07:12:58;;;;;;;0.00;0.00;;;;;;;9.34;100.00;97605.22;4937514;28;20051;-73
2023/10/28 07:15:24;;;;;;;0.00;0.00;;;;;;;9.55;100.00;97637.22;4942184;28;20031;-74
2023/10/28 07:17:50;;;;;;;0.00;0.00;;;;;;;9.53;100.00;97626.66;4945135;28;20067;-75
2023/10/28 07:20:18;;;;;;;0.00;0.00;;;;;;;9.78;100.00;97646.78;4929910;28;20040;-75
2023/10/28 07:22:51;;;;;;;0.00;0.00;;;;;;;9.87;100.00;97637.72;4922485;28;20031;-76
2023/10/28 07:25:17;;;;;;;0.00;0.00;;;;;;;10.01;100.00;97649.22;4933871;28;20036;-75
2023/10/28 07:27:42;;;;;;;0.00;0.00;;;;;;;9.84;100.00;97619.28;4948349;28;20085;-75
2023/10/28 07:30:10;;;;;;;0.00;0.00;;;;;;;9.88;100.00;97640.13;4940002;28;20039;-75
2023/10/28 07:32:36;;;;;;;0.00;0.00;;;;;;;9.66;100.00;97618.59;4937096;28;20032;-73
2023/10/28 07:35:02;;;;;;;0.00;0.00;;;;;;;9.65;100.00;97633.34;4933930;29;20038;-75
2023/10/28 07:37:44;;;;;;;0.00;0.00;;;;;;;9.47;100.00;97608.09;4941954;28;20031;-75
2023/10/28 07:40:15;;;;;;;0.00;0.00;;;;;;;9.73;100.00;97654.34;4938392;28;20106;-75
2023/10/28 07:42:41;;;;;;;0.00;0.00;;;;;;;9.50;100.00;97619.13;4935664;28;20031;-74
2023/10/28 07:45:09;;;;;;;0.00;0.00;;;;;;;9.55;100.00;97624.41;4948225;28;20477;-74
2023/10/28 07:47:34;;;;;;;0.00;0.00;;;;;;;9.56;100.00;97631.47;4940301;28;20034;-74
2023/10/28 07:49:59;;;;;;;0.00;0.00;;;;;;;9.77;100.00;97647.91;4941607;28;20030;-75
2023/10/28 07:52:26;;;;;;;0.00;0.00;;;;;;;9.78;100.00;97632.31;4938581;28;20478;-73
2023/10/28 07:54:51;;;;;;;0.00;0.00;;;;;;;9.94;100.00;97638.84;4941576;28;20031;-74
2023/10/28 07:57:17;;;;;;;0.00;0.00;;;;;;;10.07;100.00;97636.19;4952308;28;20097;-74
2023/10/28 07:59:52;;;;;;;0.00;0.00;;;;;;;10.12;100.00;97622.34;4929583;28;20472;-75
2023/10/28 08:02:17;;;;;;;0.00;0.00;;;;;;;10.31;100.00;97639.06;4943888;28;20162;-74
2023/10/28 08:04:43;;;;;;;0.00;0.00;;;;;;;10.56;100.00;97636.50;4908582;28;20414;-76
2023/10/28 08:07:08;;;;;;;0.00;0.00;;;;;;;11.03;100.00;97631.91;4932639;28;21104;-76
2023/10/28 08:09:38;;;;;;;0.00;0.00;;;;;;;11.67;100.00;97633.28;4929203;29;20039;-74
2023/10/28 08:12:10;;;;;;;0.00;0.00;;;;;;;13.19;100.00;97655.00;4921570;29;20027;-74
2023/10/28 08:14:36;;;;;;;0.00;0.00;;;;;;;14.70;99.64;97636.63;4909548;29;20063;-75
2023/10/28 08:17:05;;;;;;;0.00;0.00;;;;;;;16.46;89.24;97657.41;4920653;29;20082;-74
2023/10/28 08:19:35;;;;;;;0.00;0.00;;;;;;;17.93;80.79;97648.03;4924583;29;20489;-74
2023/10/28 08:22:01;;;;;;;0.00;0.00;;;;;;;19.15;73.67;97656.22;4897694;29;20040;-75
2023/10/28 08:24:26;;;;;;;0.00;0.00;;;;;;;19.16;72.21;97684.72;4911842;29;20039;-75
2023/10/28 08:26:52;;;;;;;0.00;0.00;;;;;;;19.22;72.40;97655.47;4926787;28;20055;-75
2023/10/28 08:29:28;;;;;;;0.00;0.00;;;;;;;20.20;68.95;97657.16;4928616;28;20047;-74
2023/10/28 08:31:54;;;;;;;0.00;0.00;;;;;;;19.99;66.71;97663.53;4921609;28;20035;-74
2023/10/28 08:34:25;;;;;;;0.00;0.00;;;;;;;18.27;69.68;97672.75;4920793;28;20039;-75
2023/10/28 08:37:00;;;;;;;0.00;0.00;;;;;;;16.22;74.40;97624.38;4915555;28;20106;-74
2023/10/28 08:39:28;;;;;;;0.00;0.00;;;;;;;15.29;79.66;97659.44;4932666;28;20035;-75
2023/10/28 08:42:06;;;;;;;0.00;0.00;;;;;;;15.46;84.89;97651.84;4939594;28;20090;-73
2023/10/28 08:44:35;;;;;;;0.00;0.00;;;;;;;17.28;80.48;97694.34;4933058;28;20042;-74
2023/10/28 08:47:21;;;;;;;0.00;0.00;;;;;;;18.87;73.60;97670.75;4916133;29;20031;-74
2023/10/28 08:49:51;;;;;;;0.00;0.00;;;;;;;20.56;65.04;97656.31;4937480;28;20055;-74
2023/10/28 08:52:18;;;;;;;0.00;0.00;;;;;;;21.78;60.43;97683.56;4939052;28;20050;-75
2023/10/28 08:54:47;;;;;;;0.00;0.00;;;;;;;22.38;57.75;97672.38;4897371;28;20031;-74
2023/10/28 08:57:13;;;;;;;0.00;0.00;;;;;;;23.64;53.87;97684.03;4942971;28;20039;-75
2023/10/28 08:59:39;;;;;;;0.00;0.00;;;;;;;25.01;50.57;97687.34;4907668;28;20035;-75
2023/10/28 09:02:28;;;;;;;0.00;0.00;;;;;;;25.88;48.02;97687.06;4937390;28;20433;-75
2023/10/28 09:05:03;;;;;;;0.00;0.00;;;;;;;27.01;46.21;97691.41;4946499;28;20078;-74
2023/10/28 09:07:29;;;;;;;0.00;0.00;;;;;;;27.44;41.62;97706.28;4946866;28;20027;-74
2023/10/28 09:10:03;;;;;;;0.00;0.00;;;;;;;27.39;40.78;97706.81;4941984;28;20019;-74
2023/10/28 09:12:34;;;;;;;0.00;0.00;;;;;;;28.02;39.61;97708.91;4930353;28;20139;-74
2023/10/28 09:15:03;;;;;;;0.00;0.00;;;;;;;28.75;38.19;97695.28;4928191;28;20040;-74
2023/10/28 09:17:28;;;;;;;0.00;0.00;;;;;;;29.70;37.48;97725.97;4941375;28;20030;-75
2023/10/28 09:19:54;;;;;;;0.00;0.00;;;;;;;30.39;36.22;97718.41;4913301;28;20050;-75
2023/10/28 09:22:22;;;;;;;0.00;0.00;;;;;;;30.18;35.70;97728.50;4936539;28;20030;-74
2023/10/28 09:24:55;;;;;;;0.00;0.00;;;;;;;28.77;36.59;97698.41;4936812;28;20119;-75
2023/10/28 09:27:22;;;;;;;0.00;0.00;;;;;;;28.61;36.65;97711.41;4916301;28;20974;-74
2023/10/28 09:29:51;;;;;;;0.00;0.00;;;;;;;28.26;37.16;97708.53;4942848;28;20032;-74
2023/10/28 09:32:18;;;;;;;0.00;0.00;;;;;;;28.12;36.11;97717.44;4936330;28;20727;-74
2023/10/28 09:34:56;;;;;;;0.00;0.00;;;;;;;28.62;36.71;97724.22;4925645;29;20114;-74
2023/10/28 09:37:24;;;;;;;0.00;0.00;;;;;;;29.94;34.20;97694.47;4922613;28;20019;-75
2023/10/28 09:40:07;;;;;;;0.00;0.00;;;;;;;30.19;32.72;97709.59;4943930;28;20024;-74
2023/10/28 09:42:35;;;;;;;0.00;0.00;;;;;;;30.73;33.53;97729.91;4922936;28;20061;-75
2023/10/28 09:45:05;;;;;;;0.00;0.00;;;;;;;30.30;33.94;97709.94;4947691;28;20022;-75
2023/10/28 09:47:46;;;;;;;0.00;0.00;;;;;;;30.75;32.03;97728.19;4936650;28;20020;-74
2023/10/28 09:50:18;;;;;;;0.00;0.00;;;;;;;29.47;32.74;97701.91;4931721;28;20028;-75
2023/10/28 09:52:49;;;;;;;0.00;0.00;;;;;;;27.92;34.54;97698.78;4933869;28;20038;-74
2023/10/28 09:55:15;;;;;;;0.00;0.00;;;;;;;27.84;35.42;97695.38;4929955;28;20481;-74
2023/10/28 09:57:45;;;;;;;0.00;0.00;;;;;;;27.52;35.17;97696.38;4941791;28;20031;-75
2023/10/28 10:00:20;;;;;;;0.00;0.00;;;;;;;27.00;35.89;97689.88;4933619;29;20038;-74
2023/10/28 10:02:58;;;;;;;0.00;0.00;;;;;;;27.89;35.10;97710.91;4930926;28;20063;-73
2023/10/28 10:05:32;;;;;;;0.00;0.00;;;;;;;28.40;34.83;97715.69;4928704;28;20377;-74
2023/10/28 10:07:57;;;;;;;0.00;0.00;;;;;;;28.62;34.30;97717.81;4930568;28;20062;-75
2023/10/28 10:10:23;;;;;;;0.00;0.00;;;;;;;29.33;33.28;97720.09;4928174;28;20059;-73
2023/10/28 10:13:00;;;;;;;;;;;;;;;;;;;;;
2023/10/28 10:18:29;;;;;;;0.00;0.00;;;;;;;30.99;30.64;97685.25;4939498;28;20446;-73
2023/10/28 10:21:06;;;;;;;0.00;0.00;;;;;;;31.01;30.47;97704.56;4933577;28;20110;-75
2023/10/28 10:23:52;;;;;;;0.00;0.00;;;;;;;31.07;30.18;97692.16;4926064;28;20429;-74
2023/10/28 10:26:50;;;;;;;0.00;0.00;;;;;;;31.04;30.16;97714.91;4921182;29;20042;-74
2023/10/28 10:29:51;;;;;;;0.00;0.00;;;;;;;32.34;28.38;97678.56;4923354;28;20039;-74
2023/10/28 10:32:38;;;;;;;0.00;0.00;;;;;;;31.51;28.48;97676.84;4935823;28;20085;-74
2023/10/28 10:35:33;;;;;;;0.00;0.00;;;;;;;28.51;32.14;97696.44;4938390;28;20043;-74
2023/10/28 10:38:26;;;;;;;0.00;0.00;;;;;;;26.10;35.92;97670.56;4943840;28;20052;-75
2023/10/28 10:41:34;;;;;;;0.00;0.00;;;;;;;24.01;39.51;97651.63;4923013;28;20661;-75
2023/10/28 10:44:42;;;;;;;0.00;0.00;;;;;;;22.26;42.67;97678.44;4918589;28;20980;-74
2023/10/28 10:47:17;;;;;;;0.00;0.00;;;;;;;21.12;45.54;97683.53;4927991;29;20194;-74
2023/10/28 10:49:56;;;;;;;0.00;0.00;;;;;;;21.58;43.91;97696.41;4906801;29;20129;-73
2023/10/28 10:52:22;;;;;;;0.00;0.00;;;;;;;21.03;45.18;97651.41;4925610;29;20039;-74
2023/10/28 10:54:48;;;;;;;0.00;0.00;;;;;;;21.16;44.32;97650.94;4928809;28;20034;-74
2023/10/28 10:57:49;;;;;;;0.00;0.00;;;;;;;21.17;45.33;97644.19;4914294;29;20035;-73
2023/10/28 11:04:02;;;;;;;0.00;0.00;;;;;;;30.06;32.72;97654.13;4903184;28;20482;-74
2023/10/28 11:10:24;;;;;;;;;;;;;;;;;;;;;
2023/10/28 11:13:04;;;;;;;0.00;0.00;;;;;;;26.74;33.43;97635.72;4935677;28;20043;-74
2023/10/28 11:16:19;;;;;;;0.00;0.00;;;;;;;24.77;37.09;97690.19;4900974;29;20522;-75
2023/10/28 11:18:55;;;;;;;0.00;0.00;;;;;;;26.02;36.31;97669.19;4905386;29;20501;-74
2023/10/28 11:21:54;;;;;;;0.00;0.00;;;;;;;25.46;36.26;97667.25;4901042;29;20106;-74
2023/10/28 11:27:44;;;;;;;0.00;0.00;;;;;;;27.20;35.91;97684.06;4907345;29;20553;-74
2023/10/28 11:30:20;;;;;;;0.00;0.00;;;;;;;28.99;34.01;97662.66;4916744;29;20032;-73
2023/10/28 11:32:53;;;;;;;0.00;0.00;;;;;;;29.03;32.78;97663.31;4908114;29;20032;-74
2023/10/28 11:35:18;;;;;;;0.00;0.00;;;;;;;30.07;31.84;97681.06;4919256;29;20055;-74
2023/10/28 11:38:00;;;;;;;;;;;;;;;;;;;;;
2023/10/28 11:40:26;;;;;;;0.00;0.00;;;;;;;26.81;34.38;97638.34;4931708;28;20039;-74
2023/10/28 11:42:54;;;;;;;0.00;0.00;;;;;;;27.17;34.51;97632.47;4914792;28;20039;-73
2023/10/28 11:45:54;;;;;;;0.00;0.00;;;;;;;27.70;33.19;97622.88;4908344;29;20024;-75
2023/10/28 11:48:26;;;;;;;0.00;0.00;;;;;;;30.21;30.91;97639.44;4919383;28;20039;-75
2023/10/28 11:50:52;;;;;;;0.00;0.00;;;;;;;31.53;28.28;97626.34;4924114;28;20394;-76
2023/10/28 11:53:49;;;;;;;0.00;0.00;;;;;;;31.34;29.04;97653.84;4939320;28;20043;-74
2023/10/28 11:56:31;;;;;;;0.00;0.00;;;;;;;29.90;29.22;97610.13;4896019;28;20090;-74
2023/10/28 11:58:57;;;;;;;0.00;0.00;;;;;;;27.10;33.71;97629.06;4932359;29;20094;-74